sensor_id;sensor_type;location;lat;lon;timestamp;temperature;humidity
9179;DHT22;4624;48.126;11.546;2022-07-01T00:00:04;20.50;99.60
9179;DHT22;4624;48.126;11.546;2022-07-01T00:02:32;20.40;99.90
9179;DHT22;4624;48.126;11.546;2022-07-01T00:04:59;20.40;99.90
9179;DHT22;4624;48.126;11.546;2022-07-01T00:07:26;20.40;99.90
9179;DHT22;4624;48.126;11.546;2022-07-01T00:09:53;20.40;99.90
9179;DHT22;4624;48.126;11.546;2022-07-01T00:12:20;20.40;99.90
9179;DHT22;4624;48.126;11.546;2022-07-01T00:14:46;20.50;99.90
9179;DHT22;4624;48.126;11.546;2022-07-01T00:17:13;20.60;99.90
9179;DHT22;4624;48.126;11.546;2022-07-01T00:19:41;20.70;99.90
9179;DHT22;4624;48.126;11.546;2022-07-01T00:22:09;20.70;99.90
9179;DHT22;4624;48.126;11.546;2022-07-01T00:24:36;20.80;99.90
9179;DHT22;4624;48.126;11.546;2022-07-01T00:27:04;20.70;99.90
9179;DHT22;4624;48.126;11.546;2022-07-01T00:29:31;20.70;99.90
9179;DHT22;4624;48.126;11.546;2022-07-01T00:31:58;20.80;99.90
9179;DHT22;4624;48.126;11.546;2022-07-01T00:34:25;20.80;99.80
9179;DHT22;4624;48.126;11.546;2022-07-01T00:36:53;20.80;99.60
9179;DHT22;4624;48.126;11.546;2022-07-01T00:39:20;20.90;99.60
9179;DHT22;4624;48.126;11.546;2022-07-01T00:41:47;20.80;99.40
9179;DHT22;4624;48.126;11.546;2022-07-01T00:44:17;20.80;99.40
9179;DHT22;4624;48.126;11.546;2022-07-01T00:46:44;20.70;99.40
9179;DHT22;4624;48.126;11.546;2022-07-01T00:49:11;20.70;99.30
9179;DHT22;4624;48.126;11.546;2022-07-01T00:51:38;20.70;99.20
9179;DHT22;4624;48.126;11.546;2022-07-01T00:54:06;20.70;99.00
9179;DHT22;4624;48.126;11.546;2022-07-01T00:56:34;20.70;98.80
9179;DHT22;4624;48.126;11.546;2022-07-01T00:59:00;20.70;98.50
9179;DHT22;4624;48.126;11.546;2022-07-01T01:01:27;20.60;98.00
9179;DHT22;4624;48.126;11.546;2022-07-01T01:03:55;20.50;97.90
9179;DHT22;4624;48.126;11.546;2022-07-01T01:06:22;20.50;97.60
9179;DHT22;4624;48.126;11.546;2022-07-01T01:08:49;20.50;97.30
9179;DHT22;4624;48.126;11.546;2022-07-01T01:11:17;20.40;97.00
9179;DHT22;4624;48.126;11.546;2022-07-01T01:13:44;20.40;97.00
9179;DHT22;4624;48.126;11.546;2022-07-01T01:16:16;20.50;96.90
9179;DHT22;4624;48.126;11.546;2022-07-01T01:18:44;20.50;96.80
9179;DHT22;4624;48.126;11.546;2022-07-01T01:21:12;20.50;96.80
9179;DHT22;4624;48.126;11.546;2022-07-01T01:23:39;20.50;96.70
9179;DHT22;4624;48.126;11.546;2022-07-01T01:26:15;20.50;96.60
9179;DHT22;4624;48.126;11.546;2022-07-01T01:28:43;20.50;96.50
9179;DHT22;4624;48.126;11.546;2022-07-01T01:31:10;20.50;96.50
9179;DHT22;4624;48.126;11.546;2022-07-01T01:33:37;20.50;96.40
9179;DHT22;4624;48.126;11.546;2022-07-01T01:36:05;20.40;96.60
9179;DHT22;4624;48.126;11.546;2022-07-01T01:38:34;20.30;96.60
9179;DHT22;4624;48.126;11.546;2022-07-01T01:41:02;20.30;96.60
9179;DHT22;4624;48.126;11.546;2022-07-01T01:43:29;20.20;97.10
9179;DHT22;4624;48.126;11.546;2022-07-01T01:45:56;20.30;96.80
9179;DHT22;4624;48.126;11.546;2022-07-01T01:48:25;20.20;96.80
9179;DHT22;4624;48.126;11.546;2022-07-01T01:50:52;20.30;96.80
9179;DHT22;4624;48.126;11.546;2022-07-01T01:53:19;20.20;96.80
9179;DHT22;4624;48.126;11.546;2022-07-01T01:55:47;20.10;96.90
9179;DHT22;4624;48.126;11.546;2022-07-01T01:58:14;20.00;97.00
9179;DHT22;4624;48.126;11.546;2022-07-01T02:00:41;20.00;97.20
9179;DHT22;4624;48.126;11.546;2022-07-01T02:03:07;20.00;97.30
9179;DHT22;4624;48.126;11.546;2022-07-01T02:05:35;20.00;97.40
9179;DHT22;4624;48.126;11.546;2022-07-01T02:08:02;20.00;97.50
9179;DHT22;4624;48.126;11.546;2022-07-01T02:10:28;20.00;97.60
9179;DHT22;4624;48.126;11.546;2022-07-01T02:12:57;19.90;97.70
9179;DHT22;4624;48.126;11.546;2022-07-01T02:15:23;19.90;97.70
9179;DHT22;4624;48.126;11.546;2022-07-01T02:17:50;19.90;98.20
9179;DHT22;4624;48.126;11.546;2022-07-01T02:20:22;19.90;97.90
9179;DHT22;4624;48.126;11.546;2022-07-01T02:22:49;19.90;97.90
9179;DHT22;4624;48.126;11.546;2022-07-01T02:25:17;19.90;98.00
9179;DHT22;4624;48.126;11.546;2022-07-01T02:27:44;19.80;98.00
9179;DHT22;4624;48.126;11.546;2022-07-01T02:30:13;19.80;98.10
9179;DHT22;4624;48.126;11.546;2022-07-01T02:32:40;19.80;98.30
9179;DHT22;4624;48.126;11.546;2022-07-01T02:35:07;19.70;98.40
9179;DHT22;4624;48.126;11.546;2022-07-01T02:37:34;19.70;98.40
9179;DHT22;4624;48.126;11.546;2022-07-01T02:40:01;19.70;98.40
9179;DHT22;4624;48.126;11.546;2022-07-01T02:42:28;19.70;98.40
9179;DHT22;4624;48.126;11.546;2022-07-01T02:45:01;19.70;98.60
9179;DHT22;4624;48.126;11.546;2022-07-01T02:47:32;19.70;98.70
9179;DHT22;4624;48.126;11.546;2022-07-01T02:49:59;19.70;98.80
9179;DHT22;4624;48.126;11.546;2022-07-01T02:52:27;19.70;98.80
9179;DHT22;4624;48.126;11.546;2022-07-01T02:54:54;19.70;98.80
9179;DHT22;4624;48.126;11.546;2022-07-01T02:57:21;19.70;98.90
9179;DHT22;4624;48.126;11.546;2022-07-01T02:59:48;19.70;99.00
9179;DHT22;4624;48.126;11.546;2022-07-01T03:02:16;19.70;98.90
9179;DHT22;4624;48.126;11.546;2022-07-01T03:04:45;19.80;99.00
9179;DHT22;4624;48.126;11.546;2022-07-01T03:07:12;19.90;99.00
9179;DHT22;4624;48.126;11.546;2022-07-01T03:09:39;19.90;99.00
9179;DHT22;4624;48.126;11.546;2022-07-01T03:12:07;19.90;99.00
9179;DHT22;4624;48.126;11.546;2022-07-01T03:14:47;19.90;98.90
9179;DHT22;4624;48.126;11.546;2022-07-01T03:17:14;19.90;98.90
9179;DHT22;4624;48.126;11.546;2022-07-01T03:19:41;19.90;98.90
9179;DHT22;4624;48.126;11.546;2022-07-01T03:22:09;19.90;98.90
9179;DHT22;4624;48.126;11.546;2022-07-01T03:24:36;19.80;98.90
9179;DHT22;4624;48.126;11.546;2022-07-01T03:27:03;19.80;99.00
9179;DHT22;4624;48.126;11.546;2022-07-01T03:29:30;19.70;99.00
9179;DHT22;4624;48.126;11.546;2022-07-01T03:31:57;19.70;99.00
9179;DHT22;4624;48.126;11.546;2022-07-01T03:34:24;19.70;99.10
9179;DHT22;4624;48.126;11.546;2022-07-01T03:36:50;19.70;99.10
9179;DHT22;4624;48.126;11.546;2022-07-01T03:39:19;19.70;99.10
9179;DHT22;4624;48.126;11.546;2022-07-01T03:41:45;19.70;99.10
9179;DHT22;4624;48.126;11.546;2022-07-01T03:44:12;19.70;99.20
9179;DHT22;4624;48.126;11.546;2022-07-01T03:46:39;19.70;99.20
9179;DHT22;4624;48.126;11.546;2022-07-01T03:49:06;19.70;99.30
9179;DHT22;4624;48.126;11.546;2022-07-01T03:51:33;19.80;99.30
9179;DHT22;4624;48.126;11.546;2022-07-01T03:54:00;19.80;99.30
9179;DHT22;4624;48.126;11.546;2022-07-01T03:56:46;19.90;99.30
9179;DHT22;4624;48.126;11.546;2022-07-01T03:59:13;19.90;99.20
9179;DHT22;4624;48.126;11.546;2022-07-01T04:01:39;19.90;99.60
9179;DHT22;4624;48.126;11.546;2022-07-01T04:04:06;19.90;99.30
9179;DHT22;4624;48.126;11.546;2022-07-01T04:06:33;19.90;99.30
9179;DHT22;4624;48.126;11.546;2022-07-01T04:09:00;19.90;99.30
9179;DHT22;4624;48.126;11.546;2022-07-01T04:11:27;19.90;99.40
9179;DHT22;4624;48.126;11.546;2022-07-01T04:13:55;19.90;99.40
9179;DHT22;4624;48.126;11.546;2022-07-01T04:16:22;19.90;99.40
9179;DHT22;4624;48.126;11.546;2022-07-01T04:18:51;19.80;99.50
9179;DHT22;4624;48.126;11.546;2022-07-01T04:21:18;19.70;99.60
9179;DHT22;4624;48.126;11.546;2022-07-01T04:24:03;19.70;99.60
9179;DHT22;4624;48.126;11.546;2022-07-01T04:26:30;19.70;99.60
9179;DHT22;4624;48.126;11.546;2022-07-01T04:28:58;19.70;99.70
9179;DHT22;4624;48.126;11.546;2022-07-01T04:31:25;19.80;99.70
9179;DHT22;4624;48.126;11.546;2022-07-01T04:33:52;19.80;99.60
9179;DHT22;4624;48.126;11.546;2022-07-01T04:36:20;19.90;99.70
9179;DHT22;4624;48.126;11.546;2022-07-01T04:38:46;19.90;99.70
9179;DHT22;4624;48.126;11.546;2022-07-01T04:41:14;19.90;99.60
9179;DHT22;4624;48.126;11.546;2022-07-01T04:43:59;19.90;99.50
9179;DHT22;4624;48.126;11.546;2022-07-01T04:46:26;19.90;99.60
9179;DHT22;4624;48.126;11.546;2022-07-01T04:48:53;19.80;99.50
9179;DHT22;4624;48.126;11.546;2022-07-01T04:51:20;19.80;99.40
9179;DHT22;4624;48.126;11.546;2022-07-01T04:53:47;19.90;99.80
9179;DHT22;4624;48.126;11.546;2022-07-01T04:56:15;19.90;99.50
9179;DHT22;4624;48.126;11.546;2022-07-01T04:58:42;20.00;99.50
9179;DHT22;4624;48.126;11.546;2022-07-01T05:01:10;20.10;99.40
9179;DHT22;4624;48.126;11.546;2022-07-01T05:03:37;20.10;99.40
9179;DHT22;4624;48.126;11.546;2022-07-01T05:06:04;20.10;99.40
9179;DHT22;4624;48.126;11.546;2022-07-01T05:08:31;20.10;99.40
9179;DHT22;4624;48.126;11.546;2022-07-01T05:10:58;20.10;99.20
9179;DHT22;4624;48.126;11.546;2022-07-01T05:13:24;20.00;99.10
9179;DHT22;4624;48.126;11.546;2022-07-01T05:15:51;20.00;99.70
9179;DHT22;4624;48.126;11.546;2022-07-01T05:18:19;20.10;99.50
9179;DHT22;4624;48.126;11.546;2022-07-01T05:21:04;20.10;99.50
9179;DHT22;4624;48.126;11.546;2022-07-01T05:23:51;20.20;99.40
9179;DHT22;4624;48.126;11.546;2022-07-01T05:26:20;20.30;99.30
9179;DHT22;4624;48.126;11.546;2022-07-01T05:28:47;20.40;99.30
9179;DHT22;4624;48.126;11.546;2022-07-01T05:31:14;20.50;99.60
9179;DHT22;4624;48.126;11.546;2022-07-01T05:33:42;20.60;99.00
9179;DHT22;4624;48.126;11.546;2022-07-01T05:36:09;20.60;98.90
9179;DHT22;4624;48.126;11.546;2022-07-01T05:38:36;20.70;99.20
9179;DHT22;4624;48.126;11.546;2022-07-01T05:41:03;20.60;99.30
9179;DHT22;4624;48.126;11.546;2022-07-01T05:43:30;20.50;99.40
9179;DHT22;4624;48.126;11.546;2022-07-01T05:45:57;20.50;99.50
9179;DHT22;4624;48.126;11.546;2022-07-01T05:48:24;20.50;99.60
9179;DHT22;4624;48.126;11.546;2022-07-01T05:50:52;20.50;99.60
9179;DHT22;4624;48.126;11.546;2022-07-01T05:53:19;20.50;99.60
9179;DHT22;4624;48.126;11.546;2022-07-01T05:55:46;20.60;99.60
9179;DHT22;4624;48.126;11.546;2022-07-01T05:58:14;20.60;99.50
9179;DHT22;4624;48.126;11.546;2022-07-01T06:00:41;20.60;99.50
9179;DHT22;4624;48.126;11.546;2022-07-01T06:03:08;20.60;99.40
9179;DHT22;4624;48.126;11.546;2022-07-01T06:05:35;20.60;99.30
9179;DHT22;4624;48.126;11.546;2022-07-01T06:08:04;20.60;99.30
9179;DHT22;4624;48.126;11.546;2022-07-01T06:10:31;20.70;99.30
9179;DHT22;4624;48.126;11.546;2022-07-01T06:12:58;21.00;99.20
9179;DHT22;4624;48.126;11.546;2022-07-01T06:15:25;21.40;99.10
9179;DHT22;4624;48.126;11.546;2022-07-01T06:17:53;21.80;98.50
9179;DHT22;4624;48.126;11.546;2022-07-01T06:20:20;22.10;98.20
9179;DHT22;4624;48.126;11.546;2022-07-01T06:22:47;22.30;97.70
9179;DHT22;4624;48.126;11.546;2022-07-01T06:25:15;22.30;97.20
9179;DHT22;4624;48.126;11.546;2022-07-01T06:27:43;22.10;97.10
9179;DHT22;4624;48.126;11.546;2022-07-01T06:30:12;21.90;96.60
9179;DHT22;4624;48.126;11.546;2022-07-01T06:32:39;21.70;96.60
9179;DHT22;4624;48.126;11.546;2022-07-01T06:35:07;21.60;96.60
9179;DHT22;4624;48.126;11.546;2022-07-01T06:37:34;21.40;96.70
9179;DHT22;4624;48.126;11.546;2022-07-01T06:40:02;21.20;96.70
9179;DHT22;4624;48.126;11.546;2022-07-01T06:42:30;21.10;96.90
9179;DHT22;4624;48.126;11.546;2022-07-01T06:44:57;21.00;97.10
9179;DHT22;4624;48.126;11.546;2022-07-01T06:47:23;20.90;97.20
9179;DHT22;4624;48.126;11.546;2022-07-01T06:49:51;20.80;97.30
9179;DHT22;4624;48.126;11.546;2022-07-01T06:52:17;20.80;97.50
9179;DHT22;4624;48.126;11.546;2022-07-01T06:54:44;20.70;97.70
9179;DHT22;4624;48.126;11.546;2022-07-01T06:57:11;20.70;97.80
9179;DHT22;4624;48.126;11.546;2022-07-01T06:59:39;20.70;97.90
9179;DHT22;4624;48.126;11.546;2022-07-01T07:02:06;20.60;98.00
9179;DHT22;4624;48.126;11.546;2022-07-01T07:04:33;20.60;98.40
9179;DHT22;4624;48.126;11.546;2022-07-01T07:07:01;20.60;98.00
9179;DHT22;4624;48.126;11.546;2022-07-01T07:09:28;20.60;98.00
9179;DHT22;4624;48.126;11.546;2022-07-01T07:11:54;20.70;98.10
9179;DHT22;4624;48.126;11.546;2022-07-01T07:14:21;20.80;98.00
9179;DHT22;4624;48.126;11.546;2022-07-01T07:16:49;20.80;97.80
9179;DHT22;4624;48.126;11.546;2022-07-01T07:19:19;20.90;97.70
9179;DHT22;4624;48.126;11.546;2022-07-01T07:21:46;21.00;97.60
9179;DHT22;4624;48.126;11.546;2022-07-01T07:24:13;21.00;97.70
9179;DHT22;4624;48.126;11.546;2022-07-01T07:26:40;21.00;97.50
9179;DHT22;4624;48.126;11.546;2022-07-01T07:29:06;21.00;97.60
9179;DHT22;4624;48.126;11.546;2022-07-01T07:31:33;20.90;97.70
9179;DHT22;4624;48.126;11.546;2022-07-01T07:34:01;20.90;97.80
9179;DHT22;4624;48.126;11.546;2022-07-01T07:36:28;20.80;97.90
9179;DHT22;4624;48.126;11.546;2022-07-01T07:38:55;20.60;97.90
9179;DHT22;4624;48.126;11.546;2022-07-01T07:41:22;20.60;98.10
9179;DHT22;4624;48.126;11.546;2022-07-01T07:43:49;20.50;98.20
9179;DHT22;4624;48.126;11.546;2022-07-01T07:46:16;20.40;98.30
9179;DHT22;4624;48.126;11.546;2022-07-01T07:48:42;20.40;98.40
9179;DHT22;4624;48.126;11.546;2022-07-01T07:51:11;20.40;98.50
9179;DHT22;4624;48.126;11.546;2022-07-01T07:53:42;20.50;98.60
9179;DHT22;4624;48.126;11.546;2022-07-01T07:56:09;20.50;98.40
9179;DHT22;4624;48.126;11.546;2022-07-01T07:58:36;20.40;98.50
9179;DHT22;4624;48.126;11.546;2022-07-01T08:01:05;20.40;98.60
9179;DHT22;4624;48.126;11.546;2022-07-01T08:03:32;20.30;98.60
9179;DHT22;4624;48.126;11.546;2022-07-01T08:05:59;20.20;98.50
9179;DHT22;4624;48.126;11.546;2022-07-01T08:08:27;20.10;98.50
9179;DHT22;4624;48.126;11.546;2022-07-01T08:10:54;20.00;98.50
9179;DHT22;4624;48.126;11.546;2022-07-01T08:13:21;19.80;98.60
9179;DHT22;4624;48.126;11.546;2022-07-01T08:15:48;19.70;98.70
9179;DHT22;4624;48.126;11.546;2022-07-01T08:18:15;19.50;98.70
9179;DHT22;4624;48.126;11.546;2022-07-01T08:20:42;19.30;98.50
9179;DHT22;4624;48.126;11.546;2022-07-01T08:23:08;19.10;98.40
9179;DHT22;4624;48.126;11.546;2022-07-01T08:25:37;18.80;98.50
9179;DHT22;4624;48.126;11.546;2022-07-01T08:28:04;18.60;98.70
9179;DHT22;4624;48.126;11.546;2022-07-01T08:30:31;18.50;98.50
9179;DHT22;4624;48.126;11.546;2022-07-01T08:32:57;18.20;98.30
9179;DHT22;4624;48.126;11.546;2022-07-01T08:35:25;18.00;98.60
9179;DHT22;4624;48.126;11.546;2022-07-01T08:37:52;17.90;98.90
9179;DHT22;4624;48.126;11.546;2022-07-01T08:40:18;17.80;99.10
9179;DHT22;4624;48.126;11.546;2022-07-01T08:42:47;17.70;99.10
9179;DHT22;4624;48.126;11.546;2022-07-01T08:45:13;17.60;99.10
9179;DHT22;4624;48.126;11.546;2022-07-01T08:47:50;17.50;99.20
9179;DHT22;4624;48.126;11.546;2022-07-01T08:50:17;17.50;99.30
9179;DHT22;4624;48.126;11.546;2022-07-01T08:52:44;17.50;99.50
9179;DHT22;4624;48.126;11.546;2022-07-01T08:55:11;17.30;99.60
9179;DHT22;4624;48.126;11.546;2022-07-01T08:57:38;17.20;99.60
9179;DHT22;4624;48.126;11.546;2022-07-01T09:00:07;17.20;99.80
9179;DHT22;4624;48.126;11.546;2022-07-01T09:02:52;17.20;99.70
9179;DHT22;4624;48.126;11.546;2022-07-01T09:05:19;17.30;99.70
9179;DHT22;4624;48.126;11.546;2022-07-01T09:07:47;17.30;99.70
9179;DHT22;4624;48.126;11.546;2022-07-01T09:10:16;17.40;99.70
9179;DHT22;4624;48.126;11.546;2022-07-01T09:12:44;17.40;99.70
9179;DHT22;4624;48.126;11.546;2022-07-01T09:15:27;17.50;99.50
9179;DHT22;4624;48.126;11.546;2022-07-01T09:17:56;17.40;99.60
9179;DHT22;4624;48.126;11.546;2022-07-01T09:20:29;17.40;99.60
9179;DHT22;4624;48.126;11.546;2022-07-01T09:23:03;17.40;99.30
9179;DHT22;4624;48.126;11.546;2022-07-01T09:25:33;17.40;99.40
9179;DHT22;4624;48.126;11.546;2022-07-01T09:28:04;17.40;99.40
9179;DHT22;4624;48.126;11.546;2022-07-01T09:30:32;17.40;99.50
9179;DHT22;4624;48.126;11.546;2022-07-01T09:33:07;17.40;99.70
9179;DHT22;4624;48.126;11.546;2022-07-01T09:35:35;17.40;99.70
9179;DHT22;4624;48.126;11.546;2022-07-01T09:38:02;17.40;99.70
9179;DHT22;4624;48.126;11.546;2022-07-01T09:40:47;17.50;99.80
9179;DHT22;4624;48.126;11.546;2022-07-01T09:43:15;17.50;99.80
9179;DHT22;4624;48.126;11.546;2022-07-01T09:45:58;17.60;99.80
9179;DHT22;4624;48.126;11.546;2022-07-01T09:48:27;17.60;99.70
9179;DHT22;4624;48.126;11.546;2022-07-01T09:51:08;17.50;99.80
9179;DHT22;4624;48.126;11.546;2022-07-01T09:53:35;17.50;99.90
9179;DHT22;4624;48.126;11.546;2022-07-01T09:56:03;17.50;99.90
9179;DHT22;4624;48.126;11.546;2022-07-01T09:58:30;17.60;99.90
9179;DHT22;4624;48.126;11.546;2022-07-01T10:00:59;17.60;99.80
9179;DHT22;4624;48.126;11.546;2022-07-01T10:03:26;17.60;99.80
9179;DHT22;4624;48.126;11.546;2022-07-01T10:05:56;17.60;99.80
9179;DHT22;4624;48.126;11.546;2022-07-01T10:08:42;17.60;99.90
9179;DHT22;4624;48.126;11.546;2022-07-01T10:11:39;17.60;99.90
9179;DHT22;4624;48.126;11.546;2022-07-01T10:14:11;17.60;99.90
9179;DHT22;4624;48.126;11.546;2022-07-01T10:16:41;17.60;99.90
9179;DHT22;4624;48.126;11.546;2022-07-01T10:19:26;17.60;99.90
9179;DHT22;4624;48.126;11.546;2022-07-01T10:21:55;17.60;99.90
9179;DHT22;4624;48.126;11.546;2022-07-01T10:24:25;17.60;99.90
9179;DHT22;4624;48.126;11.546;2022-07-01T10:26:53;17.60;99.90
9179;DHT22;4624;48.126;11.546;2022-07-01T10:29:28;17.70;99.90
9179;DHT22;4624;48.126;11.546;2022-07-01T10:32:01;17.80;99.90
9179;DHT22;4624;48.126;11.546;2022-07-01T10:34:36;17.80;99.90
9179;DHT22;4624;48.126;11.546;2022-07-01T10:37:05;17.90;99.90
9179;DHT22;4624;48.126;11.546;2022-07-01T10:39:55;17.80;99.60
9179;DHT22;4624;48.126;11.546;2022-07-01T10:42:28;17.80;99.50
9179;DHT22;4624;48.126;11.546;2022-07-01T10:45:06;17.80;99.60
9179;DHT22;4624;48.126;11.546;2022-07-01T10:47:35;17.90;99.60
9179;DHT22;4624;48.126;11.546;2022-07-01T10:50:08;17.90;99.70
9179;DHT22;4624;48.126;11.546;2022-07-01T10:52:35;18.00;99.60
9179;DHT22;4624;48.126;11.546;2022-07-01T10:55:03;18.00;99.60
9179;DHT22;4624;48.126;11.546;2022-07-01T10:57:38;18.10;99.60
9179;DHT22;4624;48.126;11.546;2022-07-01T11:00:25;18.10;99.60
9179;DHT22;4624;48.126;11.546;2022-07-01T11:03:16;18.00;99.50
9179;DHT22;4624;48.126;11.546;2022-07-01T11:05:44;18.00;99.70
9179;DHT22;4624;48.126;11.546;2022-07-01T11:08:12;18.00;99.60
9179;DHT22;4624;48.126;11.546;2022-07-01T11:10:40;18.00;99.70
9179;DHT22;4624;48.126;11.546;2022-07-01T11:13:08;18.00;99.70
9179;DHT22;4624;48.126;11.546;2022-07-01T11:15:38;18.10;99.70
9179;DHT22;4624;48.126;11.546;2022-07-01T11:18:07;18.00;99.60
9179;DHT22;4624;48.126;11.546;2022-07-01T11:20:34;18.00;99.80
9179;DHT22;4624;48.126;11.546;2022-07-01T11:23:01;18.00;99.80
9179;DHT22;4624;48.126;11.546;2022-07-01T11:25:29;18.00;99.80
9179;DHT22;4624;48.126;11.546;2022-07-01T11:27:56;18.10;99.90
9179;DHT22;4624;48.126;11.546;2022-07-01T11:30:23;18.20;99.90
9179;DHT22;4624;48.126;11.546;2022-07-01T11:32:52;18.20;99.90
9179;DHT22;4624;48.126;11.546;2022-07-01T11:35:23;18.20;99.60
9179;DHT22;4624;48.126;11.546;2022-07-01T11:38:10;18.10;99.60
9179;DHT22;4624;48.126;11.546;2022-07-01T11:40:55;18.00;99.60
9179;DHT22;4624;48.126;11.546;2022-07-01T11:43:24;17.90;99.80
9179;DHT22;4624;48.126;11.546;2022-07-01T11:45:52;18.00;99.90
9179;DHT22;4624;48.126;11.546;2022-07-01T11:48:33;17.90;99.90
9179;DHT22;4624;48.126;11.546;2022-07-01T11:51:06;17.90;99.90
9179;DHT22;4624;48.126;11.546;2022-07-01T11:53:33;18.00;99.90
9179;DHT22;4624;48.126;11.546;2022-07-01T11:56:00;18.10;99.90
9179;DHT22;4624;48.126;11.546;2022-07-01T11:58:41;18.10;99.90
9179;DHT22;4624;48.126;11.546;2022-07-01T12:01:07;18.10;99.50
9179;DHT22;4624;48.126;11.546;2022-07-01T12:03:35;17.90;99.50
9179;DHT22;4624;48.126;11.546;2022-07-01T12:06:04;17.90;99.60
9179;DHT22;4624;48.126;11.546;2022-07-01T12:08:32;17.90;99.60
9179;DHT22;4624;48.126;11.546;2022-07-01T12:10:59;17.90;99.80
9179;DHT22;4624;48.126;11.546;2022-07-01T12:13:26;18.00;99.90
9179;DHT22;4624;48.126;11.546;2022-07-01T12:15:53;18.10;99.90
9179;DHT22;4624;48.126;11.546;2022-07-01T12:18:20;18.10;99.90
9179;DHT22;4624;48.126;11.546;2022-07-01T12:20:49;18.10;99.90
9179;DHT22;4624;48.126;11.546;2022-07-01T12:23:18;18.00;99.90
9179;DHT22;4624;48.126;11.546;2022-07-01T12:25:49;18.00;99.90
9179;DHT22;4624;48.126;11.546;2022-07-01T12:28:37;17.90;99.90
9179;DHT22;4624;48.126;11.546;2022-07-01T12:31:06;17.80;99.90
9179;DHT22;4624;48.126;11.546;2022-07-01T12:33:38;17.80;99.90
9179;DHT22;4624;48.126;11.546;2022-07-01T12:36:06;17.80;99.90
9179;DHT22;4624;48.126;11.546;2022-07-01T12:38:35;18.00;99.90
9179;DHT22;4624;48.126;11.546;2022-07-01T12:41:01;18.00;99.90
9179;DHT22;4624;48.126;11.546;2022-07-01T12:43:29;18.00;99.90
9179;DHT22;4624;48.126;11.546;2022-07-01T12:46:00;18.00;99.90
9179;DHT22;4624;48.126;11.546;2022-07-01T12:48:28;17.80;99.90
9179;DHT22;4624;48.126;11.546;2022-07-01T12:50:56;17.80;99.90
9179;DHT22;4624;48.126;11.546;2022-07-01T12:53:24;17.70;99.90
9179;DHT22;4624;48.126;11.546;2022-07-01T12:55:54;17.60;99.90
9179;DHT22;4624;48.126;11.546;2022-07-01T12:58:23;17.60;99.90
9179;DHT22;4624;48.126;11.546;2022-07-01T13:00:51;17.60;99.90
9179;DHT22;4624;48.126;11.546;2022-07-01T13:03:20;17.50;99.90
9179;DHT22;4624;48.126;11.546;2022-07-01T13:05:48;17.40;99.90
9179;DHT22;4624;48.126;11.546;2022-07-01T13:08:15;17.40;99.90
9179;DHT22;4624;48.126;11.546;2022-07-01T13:10:43;17.40;99.90
9179;DHT22;4624;48.126;11.546;2022-07-01T13:13:12;17.40;99.90
9179;DHT22;4624;48.126;11.546;2022-07-01T13:15:39;17.50;99.90
9179;DHT22;4624;48.126;11.546;2022-07-01T13:18:07;17.50;99.90
9179;DHT22;4624;48.126;11.546;2022-07-01T13:20:35;17.60;99.90
9179;DHT22;4624;48.126;11.546;2022-07-01T13:23:03;17.60;99.90
9179;DHT22;4624;48.126;11.546;2022-07-01T13:25:30;17.60;99.90
9179;DHT22;4624;48.126;11.546;2022-07-01T13:27:58;17.60;99.90
9179;DHT22;4624;48.126;11.546;2022-07-01T13:30:26;17.60;99.90
9179;DHT22;4624;48.126;11.546;2022-07-01T13:32:53;17.50;99.90
9179;DHT22;4624;48.126;11.546;2022-07-01T13:35:21;17.50;99.90
9179;DHT22;4624;48.126;11.546;2022-07-01T13:37:48;17.50;99.90
9179;DHT22;4624;48.126;11.546;2022-07-01T13:40:15;17.50;99.90
9179;DHT22;4624;48.126;11.546;2022-07-01T13:42:42;17.50;99.90
9179;DHT22;4624;48.126;11.546;2022-07-01T13:45:09;17.50;99.90
9179;DHT22;4624;48.126;11.546;2022-07-01T13:47:37;17.50;99.90
9179;DHT22;4624;48.126;11.546;2022-07-01T13:50:05;17.60;99.90
9179;DHT22;4624;48.126;11.546;2022-07-01T13:52:32;17.60;99.90
9179;DHT22;4624;48.126;11.546;2022-07-01T13:54:59;17.60;99.90
9179;DHT22;4624;48.126;11.546;2022-07-01T13:57:26;17.60;99.90
9179;DHT22;4624;48.126;11.546;2022-07-01T13:59:53;17.50;99.90
9179;DHT22;4624;48.126;11.546;2022-07-01T14:02:22;17.50;99.90
9179;DHT22;4624;48.126;11.546;2022-07-01T14:04:50;17.50;99.90
9179;DHT22;4624;48.126;11.546;2022-07-01T14:07:17;17.50;99.90
9179;DHT22;4624;48.126;11.546;2022-07-01T14:09:44;17.50;99.90
9179;DHT22;4624;48.126;11.546;2022-07-01T14:12:11;17.50;99.90
9179;DHT22;4624;48.126;11.546;2022-07-01T14:14:41;17.40;99.90
9179;DHT22;4624;48.126;11.546;2022-07-01T14:17:08;17.30;99.90
9179;DHT22;4624;48.126;11.546;2022-07-01T14:19:34;17.30;99.90
9179;DHT22;4624;48.126;11.546;2022-07-01T14:22:03;17.30;99.90
9179;DHT22;4624;48.126;11.546;2022-07-01T14:24:30;17.20;99.90
9179;DHT22;4624;48.126;11.546;2022-07-01T14:26:57;17.10;99.90
9179;DHT22;4624;48.126;11.546;2022-07-01T14:29:24;17.10;99.90
9179;DHT22;4624;48.126;11.546;2022-07-01T14:31:51;17.00;99.90
9179;DHT22;4624;48.126;11.546;2022-07-01T14:34:17;17.00;99.90
9179;DHT22;4624;48.126;11.546;2022-07-01T14:36:44;17.10;99.90
9179;DHT22;4624;48.126;11.546;2022-07-01T14:39:12;17.10;99.90
9179;DHT22;4624;48.126;11.546;2022-07-01T14:41:39;17.10;99.90
9179;DHT22;4624;48.126;11.546;2022-07-01T14:44:06;17.10;99.90
9179;DHT22;4624;48.126;11.546;2022-07-01T14:46:33;17.10;99.90
9179;DHT22;4624;48.126;11.546;2022-07-01T14:49:00;17.10;99.90
9179;DHT22;4624;48.126;11.546;2022-07-01T14:51:26;17.20;99.90
9179;DHT22;4624;48.126;11.546;2022-07-01T14:53:53;17.20;99.90
9179;DHT22;4624;48.126;11.546;2022-07-01T14:56:21;17.30;99.90
9179;DHT22;4624;48.126;11.546;2022-07-01T14:58:48;17.30;99.90
9179;DHT22;4624;48.126;11.546;2022-07-01T15:01:15;17.30;99.90
9179;DHT22;4624;48.126;11.546;2022-07-01T15:03:42;17.40;99.90
9179;DHT22;4624;48.126;11.546;2022-07-01T15:06:09;17.40;99.90
9179;DHT22;4624;48.126;11.546;2022-07-01T15:08:36;17.40;99.90
9179;DHT22;4624;48.126;11.546;2022-07-01T15:11:05;17.50;99.90
9179;DHT22;4624;48.126;11.546;2022-07-01T15:13:33;17.50;99.90
9179;DHT22;4624;48.126;11.546;2022-07-01T15:16:01;17.50;99.90
9179;DHT22;4624;48.126;11.546;2022-07-01T15:18:29;17.50;99.90
9179;DHT22;4624;48.126;11.546;2022-07-01T15:20:57;17.30;99.90
9179;DHT22;4624;48.126;11.546;2022-07-01T15:23:24;17.20;99.90
9179;DHT22;4624;48.126;11.546;2022-07-01T15:25:51;17.30;99.90
9179;DHT22;4624;48.126;11.546;2022-07-01T15:28:18;17.40;99.90
9179;DHT22;4624;48.126;11.546;2022-07-01T15:30:48;17.40;99.90
9179;DHT22;4624;48.126;11.546;2022-07-01T15:33:15;17.40;99.90
9179;DHT22;4624;48.126;11.546;2022-07-01T15:35:42;17.50;99.90
9179;DHT22;4624;48.126;11.546;2022-07-01T15:38:08;17.60;99.90
9179;DHT22;4624;48.126;11.546;2022-07-01T15:40:35;17.60;99.90
9179;DHT22;4624;48.126;11.546;2022-07-01T15:43:02;17.60;99.90
9179;DHT22;4624;48.126;11.546;2022-07-01T15:45:29;17.50;99.90
9179;DHT22;4624;48.126;11.546;2022-07-01T15:47:58;17.50;99.90
9179;DHT22;4624;48.126;11.546;2022-07-01T15:50:36;17.50;99.90
9179;DHT22;4624;48.126;11.546;2022-07-01T15:53:03;17.40;99.90